sensor_id;sensor_type;location;lat;lon;timestamp;temperature;humidity
22795;DHT22;11564;50.920;11.612;2023-07-28T00:00:06;17.60;99.90
22795;DHT22;11564;50.920;11.612;2023-07-28T00:02:32;17.50;99.90
22795;DHT22;11564;50.920;11.612;2023-07-28T00:04:58;17.50;99.90
22795;DHT22;11564;50.920;11.612;2023-07-28T00:07:23;17.40;99.90
22795;DHT22;11564;50.920;11.612;2023-07-28T00:09:49;17.40;99.90
22795;DHT22;11564;50.920;11.612;2023-07-28T00:12:14;17.40;99.90
22795;DHT22;11564;50.920;11.612;2023-07-28T00:14:40;17.30;99.90
22795;DHT22;11564;50.920;11.612;2023-07-28T00:17:06;17.30;99.90
22795;DHT22;11564;50.920;11.612;2023-07-28T00:19:31;17.20;99.90
22795;DHT22;11564;50.920;11.612;2023-07-28T00:21:57;17.20;99.90
22795;DHT22;11564;50.920;11.612;2023-07-28T00:24:22;17.20;99.90
22795;DHT22;11564;50.920;11.612;2023-07-28T00:26:48;17.20;99.90
22795;DHT22;11564;50.920;11.612;2023-07-28T00:29:13;17.30;99.90
22795;DHT22;11564;50.920;11.612;2023-07-28T00:31:39;17.20;99.90
22795;DHT22;11564;50.920;11.612;2023-07-28T00:34:05;17.20;99.90
22795;DHT22;11564;50.920;11.612;2023-07-28T00:36:30;17.10;99.90
22795;DHT22;11564;50.920;11.612;2023-07-28T00:38:57;17.00;99.90
22795;DHT22;11564;50.920;11.612;2023-07-28T00:41:22;17.00;99.90
22795;DHT22;11564;50.920;11.612;2023-07-28T00:43:48;17.00;99.90
22795;DHT22;11564;50.920;11.612;2023-07-28T00:46:14;17.00;99.90
22795;DHT22;11564;50.920;11.612;2023-07-28T00:48:40;17.00;99.90
22795;DHT22;11564;50.920;11.612;2023-07-28T00:51:07;17.10;99.90
22795;DHT22;11564;50.920;11.612;2023-07-28T00:53:33;17.00;99.90
22795;DHT22;11564;50.920;11.612;2023-07-28T00:56:00;16.90;99.90
22795;DHT22;11564;50.920;11.612;2023-07-28T00:58:26;16.90;99.90
22795;DHT22;11564;50.920;11.612;2023-07-28T01:00:52;16.90;99.90
22795;DHT22;11564;50.920;11.612;2023-07-28T01:03:18;16.90;99.90
22795;DHT22;11564;50.920;11.612;2023-07-28T01:08:31;17.00;99.90
22795;DHT22;11564;50.920;11.612;2023-07-28T01:10:58;17.00;99.90
22795;DHT22;11564;50.920;11.612;2023-07-28T01:13:23;16.90;99.90
22795;DHT22;11564;50.920;11.612;2023-07-28T01:15:49;17.00;99.90
22795;DHT22;11564;50.920;11.612;2023-07-28T01:18:14;16.90;99.90
22795;DHT22;11564;50.920;11.612;2023-07-28T01:20:41;16.90;99.90
22795;DHT22;11564;50.920;11.612;2023-07-28T01:23:08;16.80;99.90
22795;DHT22;11564;50.920;11.612;2023-07-28T01:25:49;16.80;99.90
22795;DHT22;11564;50.920;11.612;2023-07-28T01:28:17;16.70;99.90
22795;DHT22;11564;50.920;11.612;2023-07-28T01:30:43;16.60;99.90
22795;DHT22;11564;50.920;11.612;2023-07-28T01:33:09;16.60;99.90
22795;DHT22;11564;50.920;11.612;2023-07-28T01:35:38;16.60;99.90
22795;DHT22;11564;50.920;11.612;2023-07-28T01:38:04;16.70;99.90
22795;DHT22;11564;50.920;11.612;2023-07-28T01:40:30;16.60;99.90
22795;DHT22;11564;50.920;11.612;2023-07-28T01:42:55;16.70;99.90
22795;DHT22;11564;50.920;11.612;2023-07-28T01:45:21;16.60;99.90
22795;DHT22;11564;50.920;11.612;2023-07-28T01:47:47;16.60;99.90
22795;DHT22;11564;50.920;11.612;2023-07-28T01:50:12;16.60;99.90
22795;DHT22;11564;50.920;11.612;2023-07-28T01:52:38;16.60;99.90
22795;DHT22;11564;50.920;11.612;2023-07-28T01:55:04;16.60;99.90
22795;DHT22;11564;50.920;11.612;2023-07-28T01:57:33;16.60;99.90
22795;DHT22;11564;50.920;11.612;2023-07-28T01:59:59;16.60;99.90
22795;DHT22;11564;50.920;11.612;2023-07-28T02:02:24;16.60;99.90
22795;DHT22;11564;50.920;11.612;2023-07-28T02:04:50;16.60;99.90
22795;DHT22;11564;50.920;11.612;2023-07-28T02:07:15;16.60;99.90
22795;DHT22;11564;50.920;11.612;2023-07-28T02:09:41;16.60;99.90
22795;DHT22;11564;50.920;11.612;2023-07-28T02:12:07;16.60;99.90
22795;DHT22;11564;50.920;11.612;2023-07-28T02:14:32;16.60;99.90
22795;DHT22;11564;50.920;11.612;2023-07-28T02:16:58;16.60;99.90
22795;DHT22;11564;50.920;11.612;2023-07-28T02:19:24;16.70;99.90
22795;DHT22;11564;50.920;11.612;2023-07-28T02:21:50;16.80;99.90
22795;DHT22;11564;50.920;11.612;2023-07-28T02:24:15;16.70;99.90
22795;DHT22;11564;50.920;11.612;2023-07-28T02:26:41;16.80;99.90
22795;DHT22;11564;50.920;11.612;2023-07-28T02:29:07;16.80;99.90
22795;DHT22;11564;50.920;11.612;2023-07-28T02:31:32;16.80;99.90
22795;DHT22;11564;50.920;11.612;2023-07-28T02:33:58;16.80;99.90
22795;DHT22;11564;50.920;11.612;2023-07-28T02:36:23;16.90;99.90
22795;DHT22;11564;50.920;11.612;2023-07-28T02:38:49;16.90;99.90
22795;DHT22;11564;50.920;11.612;2023-07-28T02:41:15;16.80;99.90
22795;DHT22;11564;50.920;11.612;2023-07-28T02:43:40;16.80;99.90
22795;DHT22;11564;50.920;11.612;2023-07-28T02:46:06;16.80;99.90
22795;DHT22;11564;50.920;11.612;2023-07-28T02:48:32;16.70;99.90
22795;DHT22;11564;50.920;11.612;2023-07-28T02:50:57;16.70;99.90
22795;DHT22;11564;50.920;11.612;2023-07-28T02:53:23;16.60;99.90
22795;DHT22;11564;50.920;11.612;2023-07-28T02:55:49;16.70;99.90
22795;DHT22;11564;50.920;11.612;2023-07-28T02:58:15;16.70;99.90
22795;DHT22;11564;50.920;11.612;2023-07-28T03:00:42;16.70;99.90
22795;DHT22;11564;50.920;11.612;2023-07-28T03:03:10;16.60;99.90
22795;DHT22;11564;50.920;11.612;2023-07-28T03:05:36;16.60;99.90
22795;DHT22;11564;50.920;11.612;2023-07-28T03:08:03;16.50;99.90
22795;DHT22;11564;50.920;11.612;2023-07-28T03:10:28;16.60;99.90
22795;DHT22;11564;50.920;11.612;2023-07-28T03:12:55;16.50;99.90
22795;DHT22;11564;50.920;11.612;2023-07-28T03:15:21;16.50;99.90
22795;DHT22;11564;50.920;11.612;2023-07-28T03:17:50;16.50;99.90
22795;DHT22;11564;50.920;11.612;2023-07-28T03:20:16;16.60;99.90
22795;DHT22;11564;50.920;11.612;2023-07-28T03:22:42;16.60;99.90
22795;DHT22;11564;50.920;11.612;2023-07-28T03:25:08;16.70;99.90
22795;DHT22;11564;50.920;11.612;2023-07-28T03:27:33;16.70;99.90
22795;DHT22;11564;50.920;11.612;2023-07-28T03:29:59;16.70;99.90
22795;DHT22;11564;50.920;11.612;2023-07-28T03:32:25;16.60;99.90
22795;DHT22;11564;50.920;11.612;2023-07-28T03:34:51;16.60;99.90
22795;DHT22;11564;50.920;11.612;2023-07-28T03:37:16;16.70;99.90
22795;DHT22;11564;50.920;11.612;2023-07-28T03:39:42;16.70;99.90
22795;DHT22;11564;50.920;11.612;2023-07-28T03:42:08;16.70;99.90
22795;DHT22;11564;50.920;11.612;2023-07-28T03:44:33;16.70;99.90
22795;DHT22;11564;50.920;11.612;2023-07-28T03:46:59;16.70;99.90
22795;DHT22;11564;50.920;11.612;2023-07-28T03:49:25;16.70;99.90
22795;DHT22;11564;50.920;11.612;2023-07-28T03:51:52;16.70;99.90
22795;DHT22;11564;50.920;11.612;2023-07-28T03:54:17;16.80;99.90
22795;DHT22;11564;50.920;11.612;2023-07-28T03:56:43;16.70;99.90
22795;DHT22;11564;50.920;11.612;2023-07-28T03:59:08;16.70;99.90
22795;DHT22;11564;50.920;11.612;2023-07-28T04:01:34;16.70;99.90
22795;DHT22;11564;50.920;11.612;2023-07-28T04:03:59;16.60;99.90
22795;DHT22;11564;50.920;11.612;2023-07-28T04:06:45;16.60;99.90
22795;DHT22;11564;50.920;11.612;2023-07-28T04:09:13;16.60;99.90
22795;DHT22;11564;50.920;11.612;2023-07-28T04:11:39;16.60;99.90
22795;DHT22;11564;50.920;11.612;2023-07-28T04:14:05;16.60;99.90
22795;DHT22;11564;50.920;11.612;2023-07-28T04:16:31;16.60;99.90
22795;DHT22;11564;50.920;11.612;2023-07-28T04:18:56;16.60;99.90
22795;DHT22;11564;50.920;11.612;2023-07-28T04:21:22;16.60;99.90
22795;DHT22;11564;50.920;11.612;2023-07-28T04:23:48;16.60;99.90
22795;DHT22;11564;50.920;11.612;2023-07-28T04:26:13;16.60;99.90
22795;DHT22;11564;50.920;11.612;2023-07-28T04:28:39;16.60;99.90
22795;DHT22;11564;50.920;11.612;2023-07-28T04:31:05;16.60;99.90
22795;DHT22;11564;50.920;11.612;2023-07-28T04:33:30;16.60;99.90
22795;DHT22;11564;50.920;11.612;2023-07-28T04:35:56;16.70;99.90
22795;DHT22;11564;50.920;11.612;2023-07-28T04:38:22;16.70;99.90
22795;DHT22;11564;50.920;11.612;2023-07-28T04:40:47;16.70;99.90
22795;DHT22;11564;50.920;11.612;2023-07-28T04:43:13;16.60;99.90
22795;DHT22;11564;50.920;11.612;2023-07-28T04:45:38;16.70;99.90
22795;DHT22;11564;50.920;11.612;2023-07-28T04:48:04;16.70;99.90
22795;DHT22;11564;50.920;11.612;2023-07-28T04:50:30;16.80;99.90
22795;DHT22;11564;50.920;11.612;2023-07-28T04:52:56;16.90;99.90
22795;DHT22;11564;50.920;11.612;2023-07-28T04:55:22;16.90;99.90
22795;DHT22;11564;50.920;11.612;2023-07-28T04:57:48;16.90;99.90
22795;DHT22;11564;50.920;11.612;2023-07-28T05:00:13;16.90;99.90
22795;DHT22;11564;50.920;11.612;2023-07-28T05:02:39;16.90;99.90
22795;DHT22;11564;50.920;11.612;2023-07-28T05:05:05;17.00;99.90
22795;DHT22;11564;50.920;11.612;2023-07-28T05:07:30;17.00;99.90
22795;DHT22;11564;50.920;11.612;2023-07-28T05:09:56;17.10;99.90
22795;DHT22;11564;50.920;11.612;2023-07-28T05:12:22;17.10;99.90
22795;DHT22;11564;50.920;11.612;2023-07-28T05:14:47;17.10;99.90
22795;DHT22;11564;50.920;11.612;2023-07-28T05:17:13;17.10;99.90
22795;DHT22;11564;50.920;11.612;2023-07-28T05:19:38;17.10;99.90
22795;DHT22;11564;50.920;11.612;2023-07-28T05:22:04;17.20;99.90
22795;DHT22;11564;50.920;11.612;2023-07-28T05:24:32;17.20;99.90
22795;DHT22;11564;50.920;11.612;2023-07-28T05:26:58;17.10;99.90
22795;DHT22;11564;50.920;11.612;2023-07-28T05:29:24;17.10;99.90
22795;DHT22;11564;50.920;11.612;2023-07-28T05:31:49;17.10;99.90
22795;DHT22;11564;50.920;11.612;2023-07-28T05:34:15;17.00;99.90
22795;DHT22;11564;50.920;11.612;2023-07-28T05:36:41;16.90;99.90
22795;DHT22;11564;50.920;11.612;2023-07-28T05:39:06;16.80;99.90
22795;DHT22;11564;50.920;11.612;2023-07-28T05:41:32;16.80;99.90
22795;DHT22;11564;50.920;11.612;2023-07-28T05:43:58;16.80;99.90
22795;DHT22;11564;50.920;11.612;2023-07-28T05:46:23;16.90;99.90
22795;DHT22;11564;50.920;11.612;2023-07-28T05:48:49;16.90;99.90
22795;DHT22;11564;50.920;11.612;2023-07-28T05:51:14;17.00;99.90
22795;DHT22;11564;50.920;11.612;2023-07-28T05:53:40;17.00;99.90
22795;DHT22;11564;50.920;11.612;2023-07-28T05:56:06;17.10;99.90
22795;DHT22;11564;50.920;11.612;2023-07-28T05:58:32;17.20;99.90
22795;DHT22;11564;50.920;11.612;2023-07-28T06:00:57;17.20;99.90
22795;DHT22;11564;50.920;11.612;2023-07-28T06:03:23;17.30;99.90
22795;DHT22;11564;50.920;11.612;2023-07-28T06:05:49;17.40;99.90
22795;DHT22;11564;50.920;11.612;2023-07-28T06:08:14;17.60;99.90
22795;DHT22;11564;50.920;11.612;2023-07-28T06:10:40;17.70;99.90
22795;DHT22;11564;50.920;11.612;2023-07-28T06:13:05;17.90;99.90
22795;DHT22;11564;50.920;11.612;2023-07-28T06:15:31;18.00;99.90
22795;DHT22;11564;50.920;11.612;2023-07-28T06:17:57;18.00;99.90
22795;DHT22;11564;50.920;11.612;2023-07-28T06:20:22;17.90;99.90
22795;DHT22;11564;50.920;11.612;2023-07-28T06:22:48;17.90;99.90
22795;DHT22;11564;50.920;11.612;2023-07-28T06:25:13;18.10;99.90
22795;DHT22;11564;50.920;11.612;2023-07-28T06:27:39;18.20;99.90
22795;DHT22;11564;50.920;11.612;2023-07-28T06:30:05;18.20;99.90
22795;DHT22;11564;50.920;11.612;2023-07-28T06:32:31;18.20;99.90
22795;DHT22;11564;50.920;11.612;2023-07-28T06:34:56;18.10;99.90
22795;DHT22;11564;50.920;11.612;2023-07-28T06:37:23;18.10;99.90
22795;DHT22;11564;50.920;11.612;2023-07-28T06:39:48;18.10;99.90
22795;DHT22;11564;50.920;11.612;2023-07-28T06:42:14;18.10;99.90
22795;DHT22;11564;50.920;11.612;2023-07-28T06:44:42;18.20;99.90
22795;DHT22;11564;50.920;11.612;2023-07-28T06:47:07;18.30;99.90
22795;DHT22;11564;50.920;11.612;2023-07-28T06:49:33;18.40;99.90
22795;DHT22;11564;50.920;11.612;2023-07-28T06:51:58;18.40;99.90
22795;DHT22;11564;50.920;11.612;2023-07-28T06:54:24;18.40;99.90
22795;DHT22;11564;50.920;11.612;2023-07-28T06:56:50;18.40;99.90
22795;DHT22;11564;50.920;11.612;2023-07-28T06:59:16;18.50;99.90
22795;DHT22;11564;50.920;11.612;2023-07-28T07:01:41;18.50;99.90
22795;DHT22;11564;50.920;11.612;2023-07-28T07:04:07;18.60;99.90
22795;DHT22;11564;50.920;11.612;2023-07-28T07:06:32;18.50;99.90
22795;DHT22;11564;50.920;11.612;2023-07-28T07:08:58;18.60;99.90
22795;DHT22;11564;50.920;11.612;2023-07-28T07:11:24;18.60;99.90
22795;DHT22;11564;50.920;11.612;2023-07-28T07:13:49;18.70;99.90
22795;DHT22;11564;50.920;11.612;2023-07-28T07:16:16;18.90;99.90
22795;DHT22;11564;50.920;11.612;2023-07-28T07:18:43;19.00;99.90
22795;DHT22;11564;50.920;11.612;2023-07-28T07:21:09;18.90;99.90
22795;DHT22;11564;50.920;11.612;2023-07-28T07:23:35;18.80;99.90
22795;DHT22;11564;50.920;11.612;2023-07-28T07:26:01;18.90;99.90
22795;DHT22;11564;50.920;11.612;2023-07-28T07:28:27;19.20;99.90
22795;DHT22;11564;50.920;11.612;2023-07-28T07:30:57;19.30;99.90
22795;DHT22;11564;50.920;11.612;2023-07-28T07:33:23;19.30;99.90
22795;DHT22;11564;50.920;11.612;2023-07-28T07:35:49;19.30;99.90
22795;DHT22;11564;50.920;11.612;2023-07-28T07:38:14;19.40;99.90
22795;DHT22;11564;50.920;11.612;2023-07-28T07:40:40;19.50;99.90
22795;DHT22;11564;50.920;11.612;2023-07-28T07:43:06;19.70;99.90
22795;DHT22;11564;50.920;11.612;2023-07-28T07:45:31;20.00;99.90
22795;DHT22;11564;50.920;11.612;2023-07-28T07:47:58;20.10;99.90
22795;DHT22;11564;50.920;11.612;2023-07-28T07:50:24;20.40;99.90
22795;DHT22;11564;50.920;11.612;2023-07-28T07:52:50;20.70;99.90
22795;DHT22;11564;50.920;11.612;2023-07-28T07:55:16;20.70;99.90
22795;DHT22;11564;50.920;11.612;2023-07-28T07:57:41;20.40;99.90
22795;DHT22;11564;50.920;11.612;2023-07-28T08:00:08;20.40;99.90
22795;DHT22;11564;50.920;11.612;2023-07-28T08:02:34;20.30;99.90
22795;DHT22;11564;50.920;11.612;2023-07-28T08:05:00;20.40;99.90
22795;DHT22;11564;50.920;11.612;2023-07-28T08:07:26;20.40;99.90
22795;DHT22;11564;50.920;11.612;2023-07-28T08:09:51;20.40;99.90
22795;DHT22;11564;50.920;11.612;2023-07-28T08:12:17;20.40;99.90
22795;DHT22;11564;50.920;11.612;2023-07-28T08:14:43;20.50;99.90
22795;DHT22;11564;50.920;11.612;2023-07-28T08:17:11;20.40;99.90
22795;DHT22;11564;50.920;11.612;2023-07-28T08:19:36;20.40;99.90
22795;DHT22;11564;50.920;11.612;2023-07-28T08:22:02;20.70;99.90
22795;DHT22;11564;50.920;11.612;2023-07-28T08:24:31;20.70;99.90
22795;DHT22;11564;50.920;11.612;2023-07-28T08:26:57;20.70;99.90
22795;DHT22;11564;50.920;11.612;2023-07-28T08:29:23;20.70;99.90
22795;DHT22;11564;50.920;11.612;2023-07-28T08:31:49;20.90;99.90
22795;DHT22;11564;50.920;11.612;2023-07-28T08:34:15;20.90;99.90
22795;DHT22;11564;50.920;11.612;2023-07-28T08:36:43;21.10;99.90
22795;DHT22;11564;50.920;11.612;2023-07-28T08:39:08;21.10;99.90
22795;DHT22;11564;50.920;11.612;2023-07-28T08:41:35;21.10;99.90
22795;DHT22;11564;50.920;11.612;2023-07-28T08:44:00;21.20;99.90
22795;DHT22;11564;50.920;11.612;2023-07-28T08:46:26;21.30;99.90
22795;DHT22;11564;50.920;11.612;2023-07-28T08:48:52;21.20;99.90
22795;DHT22;11564;50.920;11.612;2023-07-28T08:51:18;21.40;99.90
22795;DHT22;11564;50.920;11.612;2023-07-28T08:53:43;21.50;99.90
22795;DHT22;11564;50.920;11.612;2023-07-28T08:56:09;21.50;99.90
22795;DHT22;11564;50.920;11.612;2023-07-28T08:58:35;21.50;99.90
22795;DHT22;11564;50.920;11.612;2023-07-28T09:01:01;21.70;99.90
22795;DHT22;11564;50.920;11.612;2023-07-28T09:03:28;21.80;99.90
22795;DHT22;11564;50.920;11.612;2023-07-28T09:06:01;21.90;99.90
22795;DHT22;11564;50.920;11.612;2023-07-28T09:08:27;21.80;99.90
22795;DHT22;11564;50.920;11.612;2023-07-28T09:10:53;21.90;99.90
22795;DHT22;11564;50.920;11.612;2023-07-28T09:13:19;21.90;99.90
22795;DHT22;11564;50.920;11.612;2023-07-28T09:15:46;22.00;99.90
22795;DHT22;11564;50.920;11.612;2023-07-28T09:18:15;21.80;99.90
22795;DHT22;11564;50.920;11.612;2023-07-28T09:20:41;21.80;99.90
22795;DHT22;11564;50.920;11.612;2023-07-28T09:23:08;22.00;99.90
22795;DHT22;11564;50.920;11.612;2023-07-28T09:25:35;22.00;99.90
22795;DHT22;11564;50.920;11.612;2023-07-28T09:28:01;22.30;99.90
22795;DHT22;11564;50.920;11.612;2023-07-28T09:30:43;22.50;99.90
22795;DHT22;11564;50.920;11.612;2023-07-28T09:33:09;22.50;99.90
22795;DHT22;11564;50.920;11.612;2023-07-28T09:35:50;22.40;99.90
22795;DHT22;11564;50.920;11.612;2023-07-28T09:38:15;22.40;99.90
22795;DHT22;11564;50.920;11.612;2023-07-28T09:40:42;23.10;99.90
22795;DHT22;11564;50.920;11.612;2023-07-28T09:43:08;23.30;99.90
22795;DHT22;11564;50.920;11.612;2023-07-28T09:45:35;23.30;99.90
22795;DHT22;11564;50.920;11.612;2023-07-28T09:48:02;23.20;99.90
22795;DHT22;11564;50.920;11.612;2023-07-28T09:50:32;23.00;99.90
22795;DHT22;11564;50.920;11.612;2023-07-28T09:53:02;22.80;99.90
22795;DHT22;11564;50.920;11.612;2023-07-28T09:55:28;22.60;99.90
22795;DHT22;11564;50.920;11.612;2023-07-28T09:57:55;22.70;99.90
22795;DHT22;11564;50.920;11.612;2023-07-28T10:00:23;22.70;99.90
22795;DHT22;11564;50.920;11.612;2023-07-28T10:02:49;22.90;99.90
22795;DHT22;11564;50.920;11.612;2023-07-28T10:05:15;23.00;99.90
22795;DHT22;11564;50.920;11.612;2023-07-28T10:07:43;23.30;99.90
22795;DHT22;11564;50.920;11.612;2023-07-28T10:10:11;23.30;99.90
22795;DHT22;11564;50.920;11.612;2023-07-28T10:12:48;23.40;99.90
22795;DHT22;11564;50.920;11.612;2023-07-28T10:15:19;23.60;99.90
22795;DHT22;11564;50.920;11.612;2023-07-28T10:17:46;23.40;99.90
22795;DHT22;11564;50.920;11.612;2023-07-28T10:20:35;23.30;99.90
22795;DHT22;11564;50.920;11.612;2023-07-28T10:23:15;23.10;99.90
22795;DHT22;11564;50.920;11.612;2023-07-28T10:25:43;22.90;99.90
22795;DHT22;11564;50.920;11.612;2023-07-28T10:28:37;22.90;99.90
22795;DHT22;11564;50.920;11.612;2023-07-28T10:31:11;23.30;99.90
22795;DHT22;11564;50.920;11.612;2023-07-28T10:33:41;23.30;99.90
22795;DHT22;11564;50.920;11.612;2023-07-28T10:39:00;23.80;99.90
22795;DHT22;11564;50.920;11.612;2023-07-28T10:41:27;24.00;99.90
22795;DHT22;11564;50.920;11.612;2023-07-28T10:43:53;23.30;99.90
22795;DHT22;11564;50.920;11.612;2023-07-28T10:46:20;22.90;99.90
22795;DHT22;11564;50.920;11.612;2023-07-28T10:48:48;22.90;99.90
22795;DHT22;11564;50.920;11.612;2023-07-28T10:51:24;22.80;99.90
22795;DHT22;11564;50.920;11.612;2023-07-28T10:53:51;22.80;99.90
22795;DHT22;11564;50.920;11.612;2023-07-28T10:56:17;22.70;99.90
22795;DHT22;11564;50.920;11.612;2023-07-28T10:58:44;22.90;99.90
22795;DHT22;11564;50.920;11.612;2023-07-28T11:01:09;23.40;99.90
22795;DHT22;11564;50.920;11.612;2023-07-28T11:03:36;23.90;99.90
22795;DHT22;11564;50.920;11.612;2023-07-28T11:06:03;24.00;99.90
22795;DHT22;11564;50.920;11.612;2023-07-28T11:08:29;23.90;99.90
22795;DHT22;11564;50.920;11.612;2023-07-28T11:10:54;23.60;99.90
22795;DHT22;11564;50.920;11.612;2023-07-28T11:13:20;23.50;99.90
22795;DHT22;11564;50.920;11.612;2023-07-28T11:15:47;23.90;99.90
22795;DHT22;11564;50.920;11.612;2023-07-28T11:18:15;23.90;99.90
22795;DHT22;11564;50.920;11.612;2023-07-28T11:20:41;23.50;99.90
22795;DHT22;11564;50.920;11.612;2023-07-28T11:23:07;23.50;99.90
22795;DHT22;11564;50.920;11.612;2023-07-28T11:25:34;23.80;99.90
22795;DHT22;11564;50.920;11.612;2023-07-28T11:28:04;23.90;99.90
22795;DHT22;11564;50.920;11.612;2023-07-28T11:30:31;24.00;99.90
22795;DHT22;11564;50.920;11.612;2023-07-28T11:32:57;24.20;99.90
22795;DHT22;11564;50.920;11.612;2023-07-28T11:35:23;24.50;99.90
22795;DHT22;11564;50.920;11.612;2023-07-28T11:37:50;24.50;99.90
22795;DHT22;11564;50.920;11.612;2023-07-28T11:40:19;24.40;99.90
22795;DHT22;11564;50.920;11.612;2023-07-28T11:42:50;24.30;99.90
22795;DHT22;11564;50.920;11.612;2023-07-28T11:45:17;24.50;99.90
22795;DHT22;11564;50.920;11.612;2023-07-28T11:48:03;24.60;99.90
22795;DHT22;11564;50.920;11.612;2023-07-28T11:50:39;24.40;99.90
22795;DHT22;11564;50.920;11.612;2023-07-28T11:53:06;24.40;99.90
22795;DHT22;11564;50.920;11.612;2023-07-28T11:55:34;24.20;99.90
22795;DHT22;11564;50.920;11.612;2023-07-28T11:58:00;24.40;99.90
22795;DHT22;11564;50.920;11.612;2023-07-28T12:00:37;24.70;99.90
22795;DHT22;11564;50.920;11.612;2023-07-28T12:03:05;24.80;99.90
22795;DHT22;11564;50.920;11.612;2023-07-28T12:05:32;25.00;99.90
22795;DHT22;11564;50.920;11.612;2023-07-28T12:07:58;25.40;99.90
22795;DHT22;11564;50.920;11.612;2023-07-28T12:10:24;25.70;99.90
22795;DHT22;11564;50.920;11.612;2023-07-28T12:12:50;25.30;99.90
22795;DHT22;11564;50.920;11.612;2023-07-28T12:20:25;24.80;99.90
22795;DHT22;11564;50.920;11.612;2023-07-28T12:22:50;25.10;99.90
22795;DHT22;11564;50.920;11.612;2023-07-28T12:25:16;25.10;99.90
22795;DHT22;11564;50.920;11.612;2023-07-28T12:27:42;24.90;99.90
22795;DHT22;11564;50.920;11.612;2023-07-28T12:30:08;24.90;99.90
22795;DHT22;11564;50.920;11.612;2023-07-28T12:32:34;24.60;99.90
22795;DHT22;11564;50.920;11.612;2023-07-28T12:35:00;24.50;99.90
22795;DHT22;11564;50.920;11.612;2023-07-28T12:37:25;24.40;99.90
22795;DHT22;11564;50.920;11.612;2023-07-28T12:39:51;24.60;99.90
22795;DHT22;11564;50.920;11.612;2023-07-28T12:42:16;24.80;99.90
22795;DHT22;11564;50.920;11.612;2023-07-28T12:44:42;24.50;99.90
22795;DHT22;11564;50.920;11.612;2023-07-28T12:47:08;24.20;99.90
22795;DHT22;11564;50.920;11.612;2023-07-28T12:49:34;24.10;99.90
22795;DHT22;11564;50.920;11.612;2023-07-28T12:52:01;24.80;99.90
22795;DHT22;11564;50.920;11.612;2023-07-28T12:54:27;25.50;99.90
22795;DHT22;11564;50.920;11.612;2023-07-28T12:56:55;26.00;99.90
22795;DHT22;11564;50.920;11.612;2023-07-28T12:59:21;26.50;99.90
22795;DHT22;11564;50.920;11.612;2023-07-28T13:01:47;26.50;99.90
22795;DHT22;11564;50.920;11.612;2023-07-28T13:04:13;26.60;99.90
22795;DHT22;11564;50.920;11.612;2023-07-28T13:06:38;26.60;99.90
22795;DHT22;11564;50.920;11.612;2023-07-28T13:09:06;26.40;99.90
22795;DHT22;11564;50.920;11.612;2023-07-28T13:11:33;26.00;99.90
22795;DHT22;11564;50.920;11.612;2023-07-28T13:13:59;26.00;99.90
22795;DHT22;11564;50.920;11.612;2023-07-28T13:16:25;25.70;99.90
22795;DHT22;11564;50.920;11.612;2023-07-28T13:18:51;26.00;99.90
22795;DHT22;11564;50.920;11.612;2023-07-28T13:21:17;26.70;99.90
22795;DHT22;11564;50.920;11.612;2023-07-28T13:23:43;26.90;99.90
22795;DHT22;11564;50.920;11.612;2023-07-28T13:26:08;27.40;99.90
22795;DHT22;11564;50.920;11.612;2023-07-28T13:28:34;26.50;99.90
22795;DHT22;11564;50.920;11.612;2023-07-28T13:31:02;25.80;99.90
22795;DHT22;11564;50.920;11.612;2023-07-28T13:33:28;25.30;99.90
22795;DHT22;11564;50.920;11.612;2023-07-28T13:35:54;25.90;99.90
22795;DHT22;11564;50.920;11.612;2023-07-28T13:38:19;26.20;99.90
22795;DHT22;11564;50.920;11.612;2023-07-28T13:40:45;27.10;99.90
22795;DHT22;11564;50.920;11.612;2023-07-28T13:43:10;28.50;99.90
22795;DHT22;11564;50.920;11.612;2023-07-28T13:45:36;29.30;99.90
22795;DHT22;11564;50.920;11.612;2023-07-28T13:48:03;29.70;99.90
22795;DHT22;11564;50.920;11.612;2023-07-28T13:50:28;28.70;99.90
22795;DHT22;11564;50.920;11.612;2023-07-28T13:52:54;28.10;99.90
22795;DHT22;11564;50.920;11.612;2023-07-28T13:55:22;28.50;99.90
22795;DHT22;11564;50.920;11.612;2023-07-28T13:57:48;30.20;99.40
22795;DHT22;11564;50.920;11.612;2023-07-28T14:00:14;30.60;96.50
22795;DHT22;11564;50.920;11.612;2023-07-28T14:02:40;29.80;96.50
22795;DHT22;11564;50.920;11.612;2023-07-28T14:05:07;30.10;95.40
22795;DHT22;11564;50.920;11.612;2023-07-28T14:07:33;29.40;95.80
22795;DHT22;11564;50.920;11.612;2023-07-28T14:10:00;29.80;96.00
22795;DHT22;11564;50.920;11.612;2023-07-28T14:12:26;31.10;94.40
22795;DHT22;11564;50.920;11.612;2023-07-28T14:14:51;31.50;92.20
22795;DHT22;11564;50.920;11.612;2023-07-28T14:17:17;29.60;94.10
22795;DHT22;11564;50.920;11.612;2023-07-28T14:19:42;28.90;94.90
22795;DHT22;11564;50.920;11.612;2023-07-28T14:22:08;28.70;95.10
22795;DHT22;11564;50.920;11.612;2023-07-28T14:24:34;29.30;95.10
22795;DHT22;11564;50.920;11.612;2023-07-28T14:27:00;30.00;94.40
22795;DHT22;11564;50.920;11.612;2023-07-28T14:29:25;28.90;95.50
22795;DHT22;11564;50.920;11.612;2023-07-28T14:31:52;28.30;96.30
22795;DHT22;11564;50.920;11.612;2023-07-28T14:34:17;28.20;96.10
22795;DHT22;11564;50.920;11.612;2023-07-28T14:36:43;27.60;97.20
22795;DHT22;11564;50.920;11.612;2023-07-28T14:39:08;26.80;98.40
22795;DHT22;11564;50.920;11.612;2023-07-28T14:41:35;26.40;98.90
22795;DHT22;11564;50.920;11.612;2023-07-28T14:44:01;26.50;98.90
22795;DHT22;11564;50.920;11.612;2023-07-28T14:46:26;26.60;99.00
22795;DHT22;11564;50.920;11.612;2023-07-28T14:48:52;26.60;98.40
22795;DHT22;11564;50.920;11.612;2023-07-28T14:51:18;27.90;97.50
22795;DHT22;11564;50.920;11.612;2023-07-28T14:53:44;28.80;96.60
22795;DHT22;11564;50.920;11.612;2023-07-28T14:56:12;28.20;96.20
22795;DHT22;11564;50.920;11.612;2023-07-28T14:58:38;28.40;96.30
22795;DHT22;11564;50.920;11.612;2023-07-28T15:01:03;28.80;95.30
22795;DHT22;11564;50.920;11.612;2023-07-28T15:03:33;28.40;95.70
22795;DHT22;11564;50.920;11.612;2023-07-28T15:06:00;29.00;96.10
22795;DHT22;11564;50.920;11.612;2023-07-28T15:08:27;29.90;93.90
22795;DHT22;11564;50.920;11.612;2023-07-28T15:10:52;30.30;93.20
22795;DHT22;11564;50.920;11.612;2023-07-28T15:13:19;30.70;93.00
22795;DHT22;11564;50.920;11.612;2023-07-28T15:15:44;32.30;91.30
22795;DHT22;11564;50.920;11.612;2023-07-28T15:18:10;33.80;88.30
22795;DHT22;11564;50.920;11.612;2023-07-28T15:20:36;34.60;82.20